Time;durP1;ratioP1;P1;durP2;ratioP2;P2;SDS_P1;SDS_P2;PMS_P1;PMS_P2;Temp;Humidity;BMP_temperature;BMP_pressure;BME280_temperature;BME280_humidity;BME280_pressure;Samples;Min_cycle;Max_cycle;Signal;HPM_P1;HPM_P2
2021/03/13 00:02:22;;;;;;;2.67;2.00;;;16.90;53.00;;;;;;5076349;28;20529;-42
2021/03/13 00:04:52;;;;;;;2.40;1.70;;;16.80;51.00;;;;;;5078955;28;20464;-41
2021/03/13 00:07:23;;;;;;;2.47;1.97;;;16.60;53.20;;;;;;5073489;28;20473;-43
2021/03/13 00:09:53;;;;;;;2.17;1.90;;;16.60;55.30;;;;;;5058383;28;20483;-43
2021/03/13 00:12:24;;;;;;;2.10;1.90;;;16.60;55.20;;;;;;5075285;28;20487;-43
2021/03/13 00:14:54;;;;;;;2.43;2.27;;;16.60;56.30;;;;;;5079356;28;20464;-45
2021/03/13 00:17:24;;;;;;;2.60;2.40;;;16.40;57.40;;;;;;5071426;28;20803;-46
2021/03/13 00:19:55;;;;;;;3.20;2.40;;;16.30;60.20;;;;;;5081030;28;20482;-45
2021/03/13 00:22:25;;;;;;;6.00;2.60;;;16.40;59.50;;;;;;5074708;28;20446;-44
2021/03/13 00:24:56;;;;;;;2.37;2.03;;;16.30;57.60;;;;;;5081162;28;20583;-44
2021/03/13 00:27:27;;;;;;;2.40;1.80;;;16.20;57.90;;;;;;5071807;28;20870;-46
2021/03/13 00:30:17;;;;;;;2.37;2.17;;;16.20;56.90;;;;;;5067906;28;21661;-44
2021/03/13 00:32:49;;;;;;;2.83;2.20;;;16.10;55.40;;;;;;5074146;28;21916;-43
2021/03/13 00:35:20;;;;;;;5.50;2.53;;;16.00;56.60;;;;;;5065907;28;20487;-44
2021/03/13 00:37:50;;;;;;;3.77;1.90;;;16.00;57.50;;;;;;5066952;28;20440;-44
2021/03/13 00:40:22;;;;;;;2.50;2.30;;;16.00;57.60;;;;;;5069812;28;20479;-44
2021/03/13 00:42:54;;;;;;;2.47;2.10;;;15.90;58.00;;;;;;5068071;28;20506;-44
2021/03/13 00:45:25;;;;;;;3.20;2.57;;;15.90;60.50;;;;;;5070282;28;21027;-42
2021/03/13 00:47:58;;;;;;;4.20;2.30;;;15.80;60.10;;;;;;5070081;28;20489;-44
2021/03/13 00:50:29;;;;;;;2.30;2.17;;;15.80;61.80;;;;;;5067458;28;20511;-44
2021/03/13 00:53:00;;;;;;;2.40;2.20;;;15.80;59.30;;;;;;5063837;28;20434;-41
2021/03/13 00:55:30;;;;;;;2.80;2.37;;;15.90;58.80;;;;;;5064514;28;20741;-45
2021/03/13 00:58:01;;;;;;;2.00;1.70;;;15.90;57.70;;;;;;5068585;28;20504;-43
2021/03/13 01:00:38;;;;;;;1.43;1.33;;;15.80;56.30;;;;;;5065346;28;20482;-42
2021/03/13 01:03:08;;;;;;;1.70;1.60;;;15.70;54.20;;;;;;5066028;28;20452;-45
2021/03/13 01:05:39;;;;;;;1.70;1.60;;;15.70;55.30;;;;;;5083972;28;20981;-47
2021/03/13 01:08:09;;;;;;;2.33;1.90;;;15.60;55.10;;;;;;5078184;28;20484;-41
2021/03/13 01:10:55;;;;;;;2.07;1.97;;;15.50;55.50;;;;;;5071070;28;20508;-44
2021/03/13 01:13:26;;;;;;;3.10;2.30;;;15.60;58.70;;;;;;5080942;28;20508;-45
2021/03/13 01:15:56;;;;;;;6.07;2.40;;;15.60;61.50;;;;;;5083738;28;20924;-45
2021/03/13 01:18:27;;;;;;;4.23;2.63;;;15.40;64.10;;;;;;5082873;28;20488;-43
2021/03/13 01:20:57;;;;;;;2.80;2.57;;;15.20;64.40;;;;;;5083133;28;20863;-43
2021/03/13 01:23:31;;;;;;;2.73;2.53;;;15.20;65.70;;;;;;5074276;28;20920;-43
2021/03/13 01:26:01;;;;;;;5.00;2.90;;;15.10;68.00;;;;;;5061603;28;20432;-42
2021/03/13 01:28:32;;;;;;;3.40;3.10;;;15.00;70.60;;;;;;5059820;28;20454;-43
2021/03/13 01:31:02;;;;;;;3.37;2.60;;;15.00;70.70;;;;;;5077565;28;20451;-43
2021/03/13 01:33:32;;;;;;;3.27;2.97;;;15.00;69.80;;;;;;5076901;28;20452;-47
2021/03/13 01:36:02;;;;;;;3.10;2.80;;;15.00;70.00;;;;;;5079934;28;20459;-43
2021/03/13 01:38:33;;;;;;;2.80;2.60;;;14.80;69.70;;;;;;5067289;28;20441;-43
2021/03/13 01:41:03;;;;;;;2.97;2.70;;;14.90;71.00;;;;;;5063164;28;20545;-44
2021/03/13 01:43:34;;;;;;;2.90;2.70;;;14.70;71.30;;;;;;5062960;28;20456;-47
2021/03/13 01:46:05;;;;;;;3.47;2.93;;;14.60;71.60;;;;;;5070131;28;20449;-45
2021/03/13 01:48:37;;;;;;;3.70;3.40;;;14.60;73.30;;;;;;5070998;28;20487;-44
2021/03/13 01:51:07;;;;;;;3.70;3.40;;;14.50;73.30;;;;;;5063095;28;20528;-43
2021/03/13 01:53:38;;;;;;;3.13;2.80;;;14.40;74.00;;;;;;5062872;28;20807;-43
2021/03/13 01:56:08;;;;;;;2.80;2.60;;;14.30;75.30;;;;;;5062689;28;20449;-44
2021/03/13 01:58:39;;;;;;;7.17;3.60;;;14.20;73.30;;;;;;5064449;28;20482;-43
2021/03/13 02:01:22;;;;;;;2.60;2.40;;;14.10;74.60;;;;;;5074961;28;20927;-43
2021/03/13 02:03:52;;;;;;;3.33;2.83;;;14.00;74.90;;;;;;5071227;28;20448;-43
2021/03/13 02:06:22;;;;;;;3.20;2.63;;;13.90;75.30;;;;;;5068936;28;20481;-45
2021/03/13 02:09:00;;;;;;;4.33;2.83;;;13.80;76.80;;;;;;5068889;28;20453;-44
2021/03/13 02:11:38;;;;;;;3.40;3.03;;;13.70;78.30;;;;;;5067642;28;20456;-48
2021/03/13 02:14:23;;;;;;;3.10;2.80;;;13.60;77.40;;;;;;5071973;28;20451;-43
2021/03/13 02:17:03;;;;;;;3.57;3.27;;;13.40;79.60;;;;;;5073945;28;20459;-43
2021/03/13 02:20:11;;;;;;;2.83;2.63;;;13.30;80.00;;;;;;5070921;28;20468;-46
2021/03/13 02:22:48;;;;;;;6.10;3.10;;;13.20;83.30;;;;;;5069026;28;20547;-47
2021/03/13 02:25:32;;;;;;;4.90;3.90;;;13.00;86.40;;;;;;5067138;28;20482;-44
2021/03/13 02:28:06;;;;;;;4.77;4.27;;;12.80;86.80;;;;;;5073539;28;20506;-44
2021/03/13 02:30:39;;;;;;;4.17;3.87;;;12.70;89.20;;;;;;5068849;28;20485;-46
2021/03/13 02:33:17;;;;;;;13.30;12.10;;;12.50;89.60;;;;;;5072099;28;20478;-44
2021/03/13 02:35:54;;;;;;;12.77;11.63;;;12.40;89.60;;;;;;5072208;28;20571;-47
2021/03/13 02:38:28;;;;;;;13.33;11.93;;;12.40;90.80;;;;;;5068202;28;20538;-45
2021/03/13 02:41:01;;;;;;;12.50;11.47;;;12.30;90.50;;;;;;5065947;28;20461;-46
2021/03/13 02:43:33;;;;;;;18.23;16.63;;;12.20;92.40;;;;;;5068353;28;21003;-44
2021/03/13 02:46:05;;;;;;;18.80;17.30;;;12.10;93.60;;;;;;5064292;28;20459;-44
2021/03/13 02:48:37;;;;;;;18.20;16.70;;;12.00;94.60;;;;;;5064796;28;20518;-44
2021/03/13 02:51:07;;;;;;;17.50;16.00;;;11.90;95.80;;;;;;5067574;28;20475;-45
2021/03/13 02:53:39;;;;;;;15.70;14.50;;;11.80;96.40;;;;;;5075609;28;20467;-46
2021/03/13 02:56:11;;;;;;;12.00;11.00;;;11.70;97.00;;;;;;5065427;28;20537;-45
2021/03/13 02:58:42;;;;;;;9.97;9.17;;;11.60;97.80;;;;;;5074687;28;20443;-43
2021/03/13 03:01:14;;;;;;;10.20;9.40;;;11.50;98.50;;;;;;5065721;28;20529;-42
2021/03/13 03:03:45;;;;;;;10.87;9.87;;;11.40;99.60;;;;;;5069311;28;20462;-45
2021/03/13 03:06:17;;;;;;;10.13;9.13;;;11.30;99.90;;;;;;5062608;28;20470;-45
2021/03/13 03:08:48;;;;;;;9.03;8.30;;;11.20;99.90;;;;;;5068222;28;20262;-41
2021/03/13 03:11:21;;;;;;;8.85;7.95;;;11.10;99.90;;;;;;5068280;28;20745;-43
2021/03/13 03:13:53;;;;;;;10.45;8.63;;;11.10;99.90;;;;;;5079724;28;20200;-41
2021/03/13 03:16:26;;;;;;;8.83;7.80;;;11.00;99.90;;;;;;5077451;28;20249;-42
2021/03/13 03:18:59;;;;;;;9.35;8.43;;;10.90;99.90;;;;;;5069857;28;22217;-43
2021/03/13 03:21:30;;;;;;;9.93;8.52;;;10.80;99.90;;;;;;5076226;28;20204;-44
2021/03/13 03:24:01;;;;;;;9.45;8.65;;;10.80;99.90;;;;;;5065855;28;20261;-43
2021/03/13 03:26:31;;;;;;;9.10;8.20;;;10.80;99.90;;;;;;5065250;28;20693;-41
2021/03/13 03:29:01;;;;;;;11.55;8.68;;;10.70;99.90;;;;;;5073086;28;20203;-45
2021/03/13 03:31:32;;;;;;;9.10;8.23;;;10.70;99.90;;;;;;5067607;28;20583;-43
2021/03/13 03:34:03;;;;;;;8.93;8.13;;;10.60;99.90;;;;;;5079984;28;20202;-44
2021/03/13 03:36:33;;;;;;;11.00;9.20;;;10.50;99.90;;;;;;5085147;28;20207;-43
2021/03/13 03:39:03;;;;;;;10.05;8.82;;;10.50;99.90;;;;;;5074203;28;20199;-46
2021/03/13 03:41:35;;;;;;;8.93;8.13;;;10.40;99.90;;;;;;5082355;28;20210;-44
2021/03/13 03:44:12;;;;;;;8.45;7.75;;;10.40;99.90;;;;;;5077262;28;20204;-44
2021/03/13 03:46:44;;;;;;;9.30;8.38;;;10.30;99.90;;;;;;5076095;28;20218;-43
2021/03/13 03:49:15;;;;;;;9.20;8.40;;;10.20;99.90;;;;;;5071448;28;20200;-43
2021/03/13 03:51:46;;;;;;;9.23;8.40;;;10.20;99.90;;;;;;5073981;28;20638;-47
2021/03/13 03:54:17;;;;;;;10.48;8.30;;;10.10;99.90;;;;;;5082414;28;20252;-45
2021/03/13 03:56:49;;;;;;;8.10;7.30;;;10.00;99.90;;;;;;5066380;28;20209;-43
2021/03/13 03:59:21;;;;;;;9.70;8.80;;;9.90;99.90;;;;;;5066153;28;20619;-43
2021/03/13 04:01:54;;;;;;;9.48;8.50;;;9.90;99.90;;;;;;5064625;28;20211;-45
2021/03/13 04:04:25;;;;;;;9.38;8.48;;;9.80;99.90;;;;;;5069677;28;20289;-45
2021/03/13 04:06:56;;;;;;;11.07;8.52;;;9.70;99.90;;;;;;5072860;28;20215;-47
2021/03/13 04:09:28;;;;;;;10.07;9.15;;;9.70;99.90;;;;;;5069624;28;20206;-45
2021/03/13 04:11:58;;;;;;;8.85;7.93;;;9.60;99.90;;;;;;5073930;28;20206;-44
2021/03/13 04:14:28;;;;;;;12.35;9.20;;;9.60;99.90;;;;;;5075722;28;20577;-47
2021/03/13 04:17:00;;;;;;;11.20;9.73;;;9.50;99.90;;;;;;5074660;28;20198;-44
2021/03/13 04:19:31;;;;;;;11.75;10.05;;;9.40;99.90;;;;;;5064376;28;20230;-46
2021/03/13 04:22:02;;;;;;;11.20;10.10;;;9.30;99.90;;;;;;5071629;28;20679;-45
2021/03/13 04:24:33;;;;;;;14.27;10.20;;;9.20;99.90;;;;;;5074163;28;20198;-45
2021/03/13 04:27:06;;;;;;;11.45;10.38;;;9.20;99.90;;;;;;5075516;28;20221;-45
2021/03/13 04:29:36;;;;;;;11.02;9.90;;;9.30;99.90;;;;;;5071777;28;20519;-43
2021/03/13 04:32:09;;;;;;;13.82;11.10;;;9.10;99.90;;;;;;5071068;28;20202;-44
2021/03/13 04:34:42;;;;;;;14.77;10.43;;;9.10;99.90;;;;;;5065459;28;20355;-43
2021/03/13 04:37:12;;;;;;;16.48;12.40;;;9.10;99.90;;;;;;5070517;28;20193;-43
2021/03/13 04:39:43;;;;;;;12.95;11.70;;;9.00;99.90;;;;;;5082125;28;20197;-44
2021/03/13 04:42:14;;;;;;;13.27;11.95;;;9.00;99.90;;;;;;5071570;28;20209;-45
2021/03/13 04:44:44;;;;;;;14.77;12.68;;;8.90;99.90;;;;;;5081943;28;20731;-44
2021/03/13 04:47:16;;;;;;;14.88;13.38;;;8.90;99.90;;;;;;5071812;28;20232;-45
2021/03/13 04:49:47;;;;;;;16.65;13.88;;;8.90;99.90;;;;;;5071859;28;20198;-43
2021/03/13 04:52:17;;;;;;;15.80;14.30;;;8.90;99.90;;;;;;5069292;28;20259;-46
2021/03/13 04:54:47;;;;;;;15.27;13.77;;;8.90;99.90;;;;;;5080130;28;20197;-45
2021/03/13 04:57:17;;;;;;;16.75;15.05;;;8.70;99.90;;;;;;5076511;28;20205;-44
2021/03/13 04:59:47;;;;;;;18.10;16.00;;;8.60;99.90;;;;;;5066669;28;20202;-43
2021/03/13 05:02:19;;;;;;;20.45;18.48;;;8.50;99.90;;;;;;5068564;28;20190;-44
2021/03/13 05:04:49;;;;;;;21.42;18.35;;;8.50;99.90;;;;;;5065314;28;20233;-43
2021/03/13 05:07:19;;;;;;;19.23;17.20;;;8.50;99.90;;;;;;5064240;28;20230;-46
2021/03/13 05:09:49;;;;;;;20.75;18.65;;;8.40;99.90;;;;;;5068384;28;20645;-44
2021/03/13 05:12:20;;;;;;;22.42;19.02;;;8.30;99.90;;;;;;5072014;28;20252;-46
2021/03/13 05:14:50;;;;;;;23.17;20.98;;;8.30;99.90;;;;;;5079286;28;20205;-45
2021/03/13 05:17:21;;;;;;;23.25;20.45;;;8.30;99.90;;;;;;5069751;28;20202;-43
2021/03/13 05:19:52;;;;;;;23.40;20.90;;;8.20;99.90;;;;;;5074798;28;20334;-43
2021/03/13 05:22:23;;;;;;;23.40;21.15;;;8.10;99.90;;;;;;5072913;28;20208;-43
2021/03/13 05:24:54;;;;;;;26.40;20.90;;;8.00;99.90;;;;;;5076198;28;20225;-44
2021/03/13 05:27:24;;;;;;;22.60;20.33;;;8.00;99.90;;;;;;5071801;28;20256;-43
2021/03/13 05:29:54;;;;;;;23.50;21.00;;;8.00;99.90;;;;;;5069696;28;20227;-43
2021/03/13 05:32:27;;;;;;;22.50;20.10;;;7.90;99.90;;;;;;5073667;28;20252;-43
2021/03/13 05:34:57;;;;;;;22.73;20.42;;;7.90;99.90;;;;;;5068600;28;20248;-43
2021/03/13 05:37:27;;;;;;;21.40;19.50;;;7.80;99.90;;;;;;5067577;28;20266;-43
2021/03/13 05:39:57;;;;;;;24.02;21.60;;;7.70;99.90;;;;;;5080823;28;20205;-48
2021/03/13 05:42:29;;;;;;;27.17;21.50;;;7.70;99.90;;;;;;5068454;28;20233;-42
2021/03/13 05:45:00;;;;;;;24.60;22.25;;;7.60;99.90;;;;;;5069567;28;20202;-44
2021/03/13 05:47:33;;;;;;;24.30;21.98;;;7.60;99.90;;;;;;5073317;28;20235;-47
2021/03/13 05:50:06;;;;;;;24.15;21.77;;;7.70;99.90;;;;;;5079119;28;20201;-46
2021/03/13 05:52:37;;;;;;;24.20;21.65;;;7.70;99.90;;;;;;5074956;28;20210;-47
2021/03/13 05:55:10;;;;;;;23.98;20.92;;;7.60;99.90;;;;;;5077009;28;20208;-43
2021/03/13 05:57:40;;;;;;;24.13;21.77;;;7.50;99.90;;;;;;5073801;28;20225;-44
2021/03/13 06:00:12;;;;;;;26.13;23.42;;;7.50;99.90;;;;;;5069831;28;20201;-41
2021/03/13 06:02:43;;;;;;;26.67;24.20;;;7.40;99.90;;;;;;5074515;28;20205;-43
2021/03/13 06:05:15;;;;;;;27.10;24.30;;;7.40;99.90;;;;;;5066945;28;20553;-44
2021/03/13 06:07:45;;;;;;;29.15;25.42;;;7.30;99.90;;;;;;5073717;28;20229;-42
2021/03/13 06:10:16;;;;;;;28.20;25.55;;;7.30;99.90;;;;;;5074187;28;20198;-45
2021/03/13 06:12:46;;;;;;;28.83;25.70;;;7.30;99.90;;;;;;5066355;28;20212;-42
2021/03/13 06:15:17;;;;;;;26.75;24.15;;;7.20;99.90;;;;;;5074217;28;20201;-44
2021/03/13 06:17:56;;;;;;;28.60;25.75;;;7.10;99.90;;;;;;5073118;28;20208;-41
2021/03/13 06:20:33;;;;;;;29.10;25.30;;;7.10;99.90;;;;;;5078933;28;20308;-42
2021/03/13 06:23:04;;;;;;;29.63;26.35;;;7.10;99.90;;;;;;5074100;28;20273;-46
2021/03/13 06:25:34;;;;;;;30.83;27.52;;;7.10;99.90;;;;;;5065642;28;20212;-43
2021/03/13 06:28:10;;;;;;;31.30;27.92;;;7.00;99.90;;;;;;5075575;28;20274;-43
2021/03/13 06:30:42;;;;;;;33.55;30.00;;;6.90;99.90;;;;;;5083003;28;20555;-45
2021/03/13 06:33:25;;;;;;;32.83;29.33;;;6.90;99.90;;;;;;5076425;28;20198;-45
2021/03/13 06:35:56;;;;;;;32.60;28.63;;;6.80;99.90;;;;;;5072722;28;20200;-44
2021/03/13 06:38:28;;;;;;;33.03;29.75;;;6.80;99.90;;;;;;5076258;28;20205;-43
2021/03/13 06:40:59;;;;;;;31.25;28.23;;;6.80;99.90;;;;;;5074691;28;20220;-46
2021/03/13 06:43:30;;;;;;;29.95;26.60;;;6.80;99.90;;;;;;5081402;28;20197;-44
2021/03/13 06:46:04;;;;;;;30.08;26.88;;;6.70;99.90;;;;;;5068453;28;20228;-42
2021/03/13 06:48:38;;;;;;;29.60;26.65;;;6.60;99.90;;;;;;5080453;28;20772;-43
2021/03/13 06:51:28;;;;;;;30.25;25.90;;;6.60;99.90;;;;;;5076427;28;20259;-45
2021/03/13 06:54:10;;;;;;;28.08;25.15;;;6.50;99.90;;;;;;5076203;28;20205;-48
2021/03/13 06:56:42;;;;;;;29.17;26.08;;;6.60;99.90;;;;;;5078073;28;20600;-45
2021/03/13 06:59:30;;;;;;;30.60;26.23;;;6.50;99.90;;;;;;5086140;28;20209;-47
2021/03/13 07:02:04;;;;;;;27.25;24.45;;;6.50;99.90;;;;;;5083530;28;20201;-46
2021/03/13 07:04:39;;;;;;;28.33;25.33;;;6.40;99.90;;;;;;5076562;28;20264;-43
2021/03/13 07:07:10;;;;;;;28.92;26.08;;;6.40;99.90;;;;;;5083066;28;20234;-44
2021/03/13 07:09:52;;;;;;;28.90;25.85;;;6.30;99.90;;;;;;5083606;28;20193;-43
2021/03/13 07:12:29;;;;;;;27.20;24.42;;;6.30;99.90;;;;;;5080989;28;20198;-44
2021/03/13 07:15:13;;;;;;;26.25;23.75;;;6.20;99.90;;;;;;5085166;28;20204;-46
2021/03/13 07:17:45;;;;;;;23.45;20.83;;;6.20;99.90;;;;;;5070829;28;20205;-48
2021/03/13 07:20:36;;;;;;;24.83;22.30;;;6.20;99.90;;;;;;5085762;28;20201;-45
2021/03/13 07:23:07;;;;;;;25.73;22.95;;;6.20;99.90;;;;;;5072722;28;20225;-44
2021/03/13 07:25:38;;;;;;;26.20;23.55;;;6.10;99.90;;;;;;5075498;28;20214;-47
2021/03/13 07:28:10;;;;;;;25.58;23.10;;;6.10;99.90;;;;;;5073683;28;20217;-43
2021/03/13 07:30:41;;;;;;;25.85;23.35;;;6.10;99.90;;;;;;5075161;28;20232;-43
2021/03/13 07:33:12;;;;;;;26.10;23.33;;;6.00;99.90;;;;;;5074038;28;20266;-44
2021/03/13 07:35:52;;;;;;;25.45;21.58;;;5.90;99.90;;;;;;5080347;28;20201;-47
2021/03/13 07:38:27;;;;;;;25.45;22.70;;;5.90;99.90;;;;;;5084486;28;20197;-47
2021/03/13 07:40:57;;;;;;;24.52;22.17;;;5.90;99.90;;;;;;5072413;28;20287;-46
2021/03/13 07:43:28;;;;;;;24.55;21.77;;;5.80;99.90;;;;;;5082771;28;20226;-48
2021/03/13 07:45:59;;;;;;;26.33;21.33;;;5.80;99.90;;;;;;5083012;28;20202;-48
2021/03/13 07:48:29;;;;;;;24.50;21.83;;;5.80;99.90;;;;;;5078122;28;20233;-44
2021/03/13 07:51:01;;;;;;;26.73;23.50;;;5.70;99.90;;;;;;5078573;28;20590;-44
2021/03/13 07:53:34;;;;;;;27.58;21.40;;;5.60;99.90;;;;;;5076872;28;20307;-45
2021/03/13 07:56:11;;;;;;;24.38;21.15;;;5.50;99.90;;;;;;5071306;28;20254;-47
2021/03/13 07:58:42;;;;;;;25.92;23.13;;;5.50;99.90;;;;;;5083800;28;20197;-47
2021/03/13 08:01:13;;;;;;;24.02;21.58;;;5.50;99.90;;;;;;5078002;28;20193;-45
2021/03/13 08:03:45;;;;;;;24.23;21.48;;;5.40;99.90;;;;;;5076944;28;20212;-46
2021/03/13 08:06:18;;;;;;;24.40;21.85;;;5.40;99.90;;;;;;5076311;28;20198;-44
2021/03/13 08:08:50;;;;;;;24.38;21.75;;;5.40;99.90;;;;;;5080412;28;20225;-46
2021/03/13 08:11:20;;;;;;;22.52;19.95;;;5.30;99.90;;;;;;5080447;28;20320;-45
2021/03/13 08:13:55;;;;;;;24.00;21.15;;;5.30;99.90;;;;;;5083417;28;20286;-47
2021/03/13 08:16:43;;;;;;;23.42;20.92;;;5.30;99.90;;;;;;5073636;28;20300;-43
2021/03/13 08:19:37;;;;;;;23.90;19.67;;;5.20;99.90;;;;;;5074561;28;20239;-46
2021/03/13 08:22:16;;;;;;;23.48;20.98;;;5.20;99.90;;;;;;5082720;28;20247;-45
2021/03/13 08:24:48;;;;;;;21.70;19.27;;;5.20;99.90;;;;;;5082457;28;20276;-48
2021/03/13 08:27:38;;;;;;;22.17;19.83;;;5.10;99.90;;;;;;5073828;28;20256;-47
2021/03/13 08:30:28;;;;;;;21.42;19.23;;;5.10;99.90;;;;;;5081025;28;20201;-45
2021/03/13 08:32:59;;;;;;;21.85;19.10;;;5.10;99.90;;;;;;5078402;28;20198;-43
2021/03/13 08:35:34;;;;;;;22.33;19.33;;;5.00;99.90;;;;;;5083244;28;20193;-44
2021/03/13 08:38:06;;;;;;;21.52;19.33;;;4.90;99.90;;;;;;5078448;28;20619;-46
2021/03/13 08:40:42;;;;;;;24.40;19.88;;;4.90;99.90;;;;;;5064926;28;20229;-45
2021/03/13 08:43:38;;;;;;;22.00;19.60;;;4.80;99.90;;;;;;5080336;28;20241;-43
2021/03/13 08:46:47;;;;;;;23.42;19.02;;;4.80;99.90;;;;;;5076832;28;20323;-42
2021/03/13 08:49:39;;;;;;;18.67;16.77;;;4.80;99.90;;;;;;5079974;28;20229;-44
2021/03/13 08:52:26;;;;;;;20.83;18.63;;;4.80;99.90;;;;;;5078809;28;20239;-43
2021/03/13 08:54:57;;;;;;;20.25;17.60;;;4.70;99.90;;;;;;5077758;28;20205;-45
2021/03/13 08:57:45;;;;;;;19.20;17.25;;;4.70;99.90;;;;;;5077329;28;20201;-47
2021/03/13 09:00:17;;;;;;;22.15;18.58;;;4.60;99.90;;;;;;5080539;28;20262;-45
2021/03/13 09:02:50;;;;;;;21.27;19.08;;;4.60;99.90;;;;;;5078275;28;20202;-44
2021/03/13 09:05:23;;;;;;;20.38;18.10;;;4.50;99.90;;;;;;5080598;28;20189;-45
2021/03/13 09:07:55;;;;;;;20.17;18.05;;;4.50;99.90;;;;;;5074149;28;20270;-45
2021/03/13 09:10:27;;;;;;;19.58;17.58;;;4.40;99.90;;;;;;5070728;28;20267;-43
2021/03/13 09:12:57;;;;;;;19.08;17.08;;;4.40;99.90;;;;;;5082030;28;20267;-47
2021/03/13 09:15:28;;;;;;;21.88;17.45;;;4.40;99.90;;;;;;5083257;28;20254;-48
2021/03/13 09:18:36;;;;;;;22.40;18.63;;;4.40;99.90;;;;;;5075617;28;20268;-43
2021/03/13 09:21:07;;;;;;;19.08;17.17;;;4.40;99.90;;;;;;5075411;28;20255;-44
2021/03/13 09:23:38;;;;;;;18.90;16.83;;;4.40;99.90;;;;;;5077674;28;20274;-48
2021/03/13 09:26:12;;;;;;;20.42;16.48;;;4.30;99.90;;;;;;5079436;28;20197;-42
2021/03/13 09:28:42;;;;;;;18.80;16.25;;;4.20;99.90;;;;;;5071014;28;20294;-47
2021/03/13 09:31:13;;;;;;;18.48;15.60;;;4.20;99.90;;;;;;5065815;28;20304;-44
2021/03/13 09:33:44;;;;;;;19.30;16.08;;;4.30;99.90;;;;;;5077007;28;20205;-48
2021/03/13 09:36:14;;;;;;;18.63;16.60;;;4.30;99.90;;;;;;5075871;28;20201;-42
2021/03/13 09:38:56;;;;;;;17.52;15.48;;;4.20;99.90;;;;;;5076024;28;20196;-44
2021/03/13 09:41:27;;;;;;;16.45;14.75;;;4.20;99.90;;;;;;5078547;28;20625;-44
2021/03/13 09:43:57;;;;;;;17.42;15.55;;;4.20;99.90;;;;;;5068455;28;20209;-43
2021/03/13 09:46:27;;;;;;;17.05;15.25;;;4.10;99.90;;;;;;5079897;28;20721;-44
2021/03/13 09:48:58;;;;;;;16.27;14.55;;;4.10;99.90;;;;;;5079060;28;20602;-43
2021/03/13 09:51:29;;;;;;;20.23;16.05;;;4.00;99.90;;;;;;5076145;28;20201;-46
2021/03/13 09:53:59;;;;;;;17.60;15.60;;;4.00;99.90;;;;;;5083341;28;20677;-43
2021/03/13 09:56:33;;;;;;;15.82;13.65;;;4.00;99.90;;;;;;5074477;28;20281;-43
2021/03/13 09:59:04;;;;;;;16.48;14.77;;;4.00;99.90;;;;;;5082673;28;20207;-42
2021/03/13 10:01:34;;;;;;;15.73;13.43;;;3.90;99.90;;;;;;5077207;28;20267;-42
2021/03/13 10:04:05;;;;;;;16.15;14.57;;;3.90;99.90;;;;;;5082840;28;20205;-44
2021/03/13 10:06:37;;;;;;;15.93;13.50;;;3.80;99.90;;;;;;5074449;28;20620;-44
2021/03/13 10:09:10;;;;;;;15.60;13.93;;;3.90;99.90;;;;;;5079817;28;20225;-43
2021/03/13 10:11:44;;;;;;;14.63;13.07;;;3.80;99.90;;;;;;5080860;28;20205;-43
2021/03/13 10:14:21;;;;;;;14.20;12.52;;;3.70;99.90;;;;;;5082588;28;20667;-42
2021/03/13 10:17:00;;;;;;;17.40;13.93;;;3.70;99.90;;;;;;5075258;28;20327;-43
2021/03/13 10:19:44;;;;;;;15.45;13.88;;;3.70;99.90;;;;;;5070384;28;20239;-43
2021/03/13 10:22:19;;;;;;;14.15;12.77;;;3.70;99.90;;;;;;5086245;28;20205;-42
2021/03/13 10:24:52;;;;;;;14.82;13.23;;;3.60;99.90;;;;;;5077882;28;20232;-42
2021/03/13 10:27:29;;;;;;;14.57;12.93;;;3.60;99.90;;;;;;5076669;28;20229;-43
2021/03/13 10:30:02;;;;;;;15.90;13.48;;;3.50;99.90;;;;;;5084992;28;20205;-44
2021/03/13 10:32:33;;;;;;;13.20;11.95;;;3.50;99.90;;;;;;5085899;28;20208;-43
2021/03/13 10:35:22;;;;;;;14.02;12.60;;;3.50;99.90;;;;;;5077028;28;20261;-42
2021/03/13 10:37:58;;;;;;;13.27;11.88;;;3.50;99.90;;;;;;5080747;28;20204;-43
2021/03/13 10:40:40;;;;;;;16.23;11.80;;;3.50;99.90;;;;;;5077333;28;20201;-42
2021/03/13 10:43:30;;;;;;;12.93;11.63;;;3.50;99.90;;;;;;5084910;28;20201;-44
2021/03/13 10:46:12;;;;;;;13.43;11.68;;;3.40;99.90;;;;;;5078126;28;20197;-43
2021/03/13 10:49:07;;;;;;;12.55;11.25;;;3.30;99.90;;;;;;5080427;28;20579;-44
2021/03/13 10:51:42;;;;;;;12.70;11.40;;;3.30;99.90;;;;;;5070427;28;20201;-44
2021/03/13 10:54:23;;;;;;;13.57;11.95;;;3.30;99.90;;;;;;5076061;28;20686;-43
2021/03/13 10:56:54;;;;;;;12.43;11.13;;;3.20;99.90;;;;;;5083832;28;20223;-43
2021/03/13 10:59:33;;;;;;;12.43;11.13;;;3.30;99.90;;;;;;5075290;28;20241;-44
2021/03/13 11:02:04;;;;;;;13.10;11.70;;;3.30;99.90;;;;;;5084573;28;20205;-44
2021/03/13 11:04:34;;;;;;;12.98;11.13;;;3.30;99.90;;;;;;5084409;28;20247;-44
2021/03/13 11:07:07;;;;;;;14.25;10.48;;;3.30;99.90;;;;;;5073337;28;20217;-45
2021/03/13 11:09:37;;;;;;;13.40;11.23;;;3.30;99.90;;;;;;5078687;28;20229;-47
2021/03/13 11:12:08;;;;;;;12.50;10.18;;;3.30;99.90;;;;;;5076723;28;20300;-44
2021/03/13 11:14:39;;;;;;;13.15;10.30;;;3.30;99.90;;;;;;5085034;28;20258;-45
2021/03/13 11:17:09;;;;;;;14.90;9.57;;;3.30;99.90;;;;;;5071093;28;20734;-45
2021/03/13 11:19:40;;;;;;;11.18;9.15;;;3.30;99.90;;;;;;5081479;28;20233;-46
2021/03/13 11:22:11;;;;;;;11.02;9.35;;;3.30;99.90;;;;;;5085192;28;20201;-45
2021/03/13 11:24:42;;;;;;;11.50;9.32;;;3.30;99.90;;;;;;5080599;28;20224;-45
2021/03/13 11:27:12;;;;;;;9.52;8.50;;;3.30;99.90;;;;;;5078348;28;20205;-45
2021/03/13 11:29:43;;;;;;;10.88;9.02;;;3.20;99.90;;;;;;5083716;28;20230;-44
2021/03/13 11:32:15;;;;;;;10.40;8.35;;;3.20;99.90;;;;;;5084611;28;20209;-46
2021/03/13 11:34:45;;;;;;;10.48;8.75;;;3.20;99.90;;;;;;5085516;28;20226;-43
2021/03/13 11:37:15;;;;;;;10.32;8.25;;;3.10;99.90;;;;;;5076092;28;20201;-43
2021/03/13 11:39:45;;;;;;;10.02;7.95;;;3.20;99.90;;;;;;5066751;28;20218;-44
2021/03/13 11:42:16;;;;;;;10.00;8.35;;;3.10;99.90;;;;;;5072398;28;20213;-45
2021/03/13 11:44:47;;;;;;;9.55;8.23;;;3.10;99.90;;;;;;5080687;28;20237;-49
2021/03/13 11:47:18;;;;;;;9.68;7.88;;;3.10;99.90;;;;;;5070649;28;20208;-48
2021/03/13 11:49:49;;;;;;;11.20;8.52;;;3.00;99.90;;;;;;5068205;28;20294;-43
2021/03/13 11:52:19;;;;;;;9.63;8.63;;;3.10;99.90;;;;;;5074752;28;20607;-44
2021/03/13 11:54:49;;;;;;;10.70;9.00;;;3.00;99.90;;;;;;5077728;28;20205;-44
2021/03/13 11:57:20;;;;;;;10.32;8.40;;;2.90;99.90;;;;;;5083749;28;20208;-45
2021/03/13 11:59:51;;;;;;;7.78;7.07;;;3.00;99.90;;;;;;5084668;28;20200;-45
2021/03/13 12:02:21;;;;;;;10.63;8.10;;;2.90;99.90;;;;;;5077369;28;20228;-46
2021/03/13 12:04:52;;;;;;;9.57;8.48;;;2.90;99.90;;;;;;5067310;28;20230;-43
2021/03/13 12:07:22;;;;;;;8.70;7.80;;;2.90;99.90;;;;;;5083277;28;20205;-44
2021/03/13 12:09:52;;;;;;;9.10;8.20;;;2.90;99.90;;;;;;5070957;28;20225;-45
2021/03/13 12:12:23;;;;;;;8.77;7.90;;;2.90;99.90;;;;;;5082846;28;20288;-44
2021/03/13 12:14:54;;;;;;;8.40;7.55;;;2.80;99.90;;;;;;5084105;28;20217;-43
2021/03/13 12:17:25;;;;;;;10.05;6.93;;;2.80;99.90;;;;;;5084173;28;20237;-43
2021/03/13 12:20:14;;;;;;;11.18;7.80;;;2.80;99.90;;;;;;5073167;28;20232;-44
2021/03/13 12:22:44;;;;;;;9.13;8.13;;;2.80;99.90;;;;;;5077329;28;20201;-46
2021/03/13 12:25:14;;;;;;;10.35;7.47;;;2.70;99.90;;;;;;5082177;28;20213;-45
2021/03/13 12:27:44;;;;;;;8.02;6.80;;;2.70;99.90;;;;;;5081647;28;20205;-46
2021/03/13 12:30:17;;;;;;;8.32;7.53;;;2.60;99.90;;;;;;5071518;28;20206;-43
2021/03/13 12:32:54;;;;;;;8.40;7.57;;;2.60;99.90;;;;;;5078413;28;20216;-43
2021/03/13 12:35:24;;;;;;;7.97;6.68;;;2.60;99.90;;;;;;5075986;28;20205;-43
2021/03/13 12:37:55;;;;;;;10.48;7.38;;;2.50;99.90;;;;;;5082041;28;20229;-46
2021/03/13 12:40:25;;;;;;;9.52;8.10;;;2.50;99.90;;;;;;5073121;28;20216;-45
2021/03/13 12:42:55;;;;;;;8.63;7.60;;;2.50;99.90;;;;;;5076379;28;20198;-44
2021/03/13 12:45:26;;;;;;;10.18;8.40;;;2.50;99.90;;;;;;5071622;28;20215;-47
2021/03/13 12:47:57;;;;;;;7.80;6.55;;;2.50;99.90;;;;;;5084050;28;20569;-48
2021/03/13 12:50:27;;;;;;;10.45;7.07;;;2.50;99.90;;;;;;5068915;28;20222;-46
2021/03/13 12:52:57;;;;;;;8.43;7.65;;;2.40;99.90;;;;;;5074113;28;20209;-46
2021/03/13 12:55:27;;;;;;;9.98;6.80;;;2.50;99.90;;;;;;5073590;28;20213;-44
2021/03/13 12:57:57;;;;;;;9.32;6.85;;;2.50;99.90;;;;;;5073165;28;20584;-45
2021/03/13 13:00:35;;;;;;;10.10;7.82;;;2.40;99.90;;;;;;5075790;28;20200;-45
2021/03/13 13:03:06;;;;;;;7.10;6.40;;;2.40;99.90;;;;;;5071326;28;20209;-42
2021/03/13 13:05:36;;;;;;;7.95;7.15;;;2.40;99.90;;;;;;5075927;28;20208;-43
2021/03/13 13:08:07;;;;;;;7.82;7.03;;;2.30;99.90;;;;;;5071049;28;20218;-45
2021/03/13 13:10:37;;;;;;;9.52;7.38;;;2.30;99.90;;;;;;5067721;28;20210;-44
2021/03/13 13:13:13;;;;;;;8.23;6.63;;;2.30;99.90;;;;;;5075900;28;20209;-43